^^
Grace C. Lehan Memorial Weather Station Historical Data
Daily Summary for September 29, 2022 Units:  English    Metric   Both
Daily Weekly Monthly Yearly
  High: Low: Average:
Temperature: 66.3 °F 51.3 °F 58.1 °F
Dew Point: 53 °F 46.3 °F 49.3 °F
Humidity: 86% 57.5% 74%
Wind Speed: 3.9mph 0mph 0.6mph
Wind Gust: 15mph - -
Wind- - WSW
Pressure: 30.34 in 30.20 in -
Precipitation: 0.00 in    
 
 
Tabular Data for September 29, 2022
Time Temperature Dew Point Pressure Wind Wind Speed Wind Gust Humidity Rainfall Rate (Hourly) solar
00:09 57.7 °F 51.3 °F 30.20 in Calm   2 mph 79% 0.00 in 0 W/m2
00:14 57.6 °F 51.1 °F 30.20 in Calm   2 mph 79% 0.00 in 0 W/m2
00:19 57.4 °F 51.2 °F 30.20 in North 0.4 mph 4 mph 79.6% 0.00 in 0 W/m2
00:24 57.3 °F 51.2 °F 30.20 in Calm   4 mph 80% 0.00 in 0 W/m2
00:29 57.1 °F 51 °F 30.20 in NNW 0.5 mph 5 mph 80% 0.00 in 0 W/m2
00:34 57 °F 50.9 °F 30.21 in Calm   5 mph 80% 0.00 in 0 W/m2
00:39 56.9 °F 50.8 °F 30.21 in NW 0.1 mph 2 mph 80% 0.00 in 0 W/m2
00:44 56.8 °F 50.9 °F 30.21 in NW 0.1 mph 2 mph 80.7% 0.00 in 0 W/m2
00:49 56.7 °F 50.9 °F 30.21 in NW 0.1 mph 3 mph 81% 0.00 in 0 W/m2
00:54 56.6 °F 50.8 °F 30.21 in NW 0.1 mph 3 mph 81% 0.00 in 0 W/m2
00:59 56.5 °F 50.8 °F 30.21 in Calm   3 mph 81% 0.00 in 0 W/m2
01:04 56.4 °F 50.7 °F 30.22 in NW 0.1 mph 3 mph 81% 0.00 in 0 W/m2
01:09 56.4 °F 50.7 °F 30.22 in NW 0.4 mph 7 mph 81.1% 0.00 in 0 W/m2
01:14 56.3 °F 50.6 °F 30.22 in NW 0.5 mph 7 mph 81.3% 0.00 in 0 W/m2
01:19 56.2 °F 50.7 °F 30.22 in NW 0.6 mph 7 mph 81.6% 0.00 in 0 W/m2
01:24 56.2 °F 50.8 °F 30.22 in NW 0.1 mph 7 mph 82% 0.00 in 0 W/m2
01:29 56.1 °F 50.7 °F 30.22 in Calm   7 mph 81.9% 0.00 in 0 W/m2
01:34 56 °F 50.4 °F 30.22 in Calm   7 mph 81.3% 0.00 in 0 W/m2
01:39 56 °F 50.2 °F 30.22 in NW 0.1 mph 3 mph 81% 0.00 in 0 W/m2
01:44 55.9 °F 50.1 °F 30.23 in NW 0.3 mph 5 mph 81% 0.00 in 0 W/m2
01:49 55.8 °F 50.2 °F 30.23 in Calm   5 mph 81.4% 0.00 in 0 W/m2
01:54 55.7 °F 50.3 °F 30.23 in Calm   5 mph 82% 0.00 in 0 W/m2
01:59 55.6 °F 50.2 °F 30.23 in NW 0.1 mph 5 mph 82% 0.00 in 0 W/m2
02:04 55.5 °F 50.1 °F 30.23 in NW 0.2 mph 5 mph 82% 0.00 in 0 W/m2
02:09 55.4 °F 50.2 °F 30.23 in Calm   3 mph 82.7% 0.00 in 0 W/m2
02:14 55.3 °F 49.9 °F 30.23 in Calm   3 mph 82% 0.00 in 0 W/m2
02:19 55.2 °F 49.8 °F 30.23 in Calm   3 mph 82% 0.00 in 0 W/m2
02:24 55.1 °F 49.7 °F 30.23 in Calm   3 mph 82% 0.00 in 0 W/m2
02:29 55 °F 49.6 °F 30.23 in NW 0.1 mph 3 mph 82% 0.00 in 0 W/m2
02:34 54.9 °F 49.5 °F 30.23 in NW 0.1 mph 3 mph 82% 0.00 in 0 W/m2
02:39 54.8 °F 49.4 °F 30.23 in NW 0.2 mph 4 mph 82% 0.00 in 0 W/m2
02:44 54.6 °F 49.3 °F 30.23 in Calm   4 mph 82% 0.00 in 0 W/m2
02:49 54.5 °F 49.4 °F 30.23 in Calm   4 mph 82.6% 0.00 in 0 W/m2
02:54 54.4 °F 49.4 °F 30.23 in Calm   4 mph 83% 0.00 in 0 W/m2
02:59 54.3 °F 49.3 °F 30.23 in Calm   4 mph 83% 0.00 in 0 W/m2
03:04 54.2 °F 49.1 °F 30.23 in Calm   4 mph 83% 0.00 in 0 W/m2
03:09 54.1 °F 49 °F 30.23 in Calm     83% 0.00 in 0 W/m2
03:14 53.9 °F 49.2 °F 30.23 in Calm     83.8% 0.00 in 0 W/m2
03:19 53.8 °F 49.1 °F 30.23 in Calm   1 mph 84% 0.00 in 0 W/m2
03:24 53.7 °F 49 °F 30.23 in Calm   1 mph 84% 0.00 in 0 W/m2
03:29 53.6 °F 48.9 °F 30.23 in Calm   1 mph 84% 0.00 in 0 W/m2
03:34 53.5 °F 48.8 °F 30.23 in Calm   1 mph 84% 0.00 in 0 W/m2
03:39 53.3 °F 48.6 °F 30.24 in Calm     84% 0.00 in 0 W/m2
03:44 53.3 °F 48.6 °F 30.24 in Calm   1 mph 84.2% 0.00 in 0 W/m2
03:49 53.1 °F 48.8 °F 30.24 in Calm   1 mph 85% 0.00 in 0 W/m2
03:54 53 °F 48.7 °F 30.24 in Calm   1 mph 85% 0.00 in 0 W/m2
03:59 53 °F 48.6 °F 30.24 in Calm   1 mph 85% 0.00 in 0 W/m2
04:00 53 °F 48.6 °F 30.24 in Calm   1 mph 85% 0.00 in 0 W/m2
04:09 52.8 °F 48.4 °F 30.24 in Calm     85% 0.00 in 0 W/m2
04:14 52.8 °F 48.4 °F 30.24 in Calm     85% 0.00 in 0 W/m2
04:19 52.7 °F 48.3 °F 30.25 in Calm     85% 0.00 in 0 W/m2
04:24 52.6 °F 48.2 °F 30.25 in Calm     85% 0.00 in 0 W/m2
04:29 52.5 °F 48.2 °F 30.25 in Calm     85% 0.00 in 0 W/m2
04:34 52.4 °F 48.1 °F 30.25 in Calm     85% 0.00 in 0 W/m2
04:39 52.3 °F 48.3 °F 30.25 in NW 0.2 mph 3 mph 86% 0.00 in 0 W/m2
04:44 52.3 °F 48.2 °F 30.25 in NW 0.1 mph 3 mph 86% 0.00 in 0 W/m2
04:49 52.2 °F 48.2 °F 30.25 in Calm   3 mph 86% 0.00 in 0 W/m2
04:54 52.2 °F 48.2 °F 30.26 in NW 0.1 mph 3 mph 86% 0.00 in 0 W/m2
04:59 52.2 °F 48.2 °F 30.26 in NW 0.6 mph 4 mph 86% 0.00 in 0 W/m2
05:04 52.2 °F 48.2 °F 30.26 in Calm   4 mph 86% 0.00 in 0 W/m2
05:09 52.2 °F 48.2 °F 30.26 in NW 0.3 mph 4 mph 86% 0.00 in 0 W/m2
05:14 52.2 °F 48.2 °F 30.26 in Calm   4 mph 86% 0.00 in 0 W/m2
05:19 52.2 °F 48.1 °F 30.26 in NW 0.1 mph 4 mph 85.8% 0.00 in 0 W/m2
05:24 52.2 °F 47.8 °F 30.26 in NW 0.1 mph 4 mph 85% 0.00 in 0 W/m2
05:29 52.2 °F 47.8 °F 30.26 in Calm   4 mph 85% 0.00 in 0 W/m2
05:34 52.2 °F 47.8 °F 30.26 in NW 0.2 mph 4 mph 85% 0.00 in 0 W/m2
05:39 52.2 °F 47.8 °F 30.27 in NW 0.1 mph 4 mph 85% 0.00 in 0 W/m2
05:44 52.2 °F 47.8 °F 30.27 in Calm   4 mph 85% 0.00 in 0 W/m2
05:49 52.1 °F 47.8 °F 30.27 in NW 0.1 mph 4 mph 85% 0.00 in 0 W/m2
05:54 52.1 °F 47.7 °F 30.27 in Calm   4 mph 85% 0.00 in 0 W/m2
05:59 52.1 °F 47.7 °F 30.27 in Calm   4 mph 85% 0.00 in 0 W/m2
06:04 52.1 °F 47.7 °F 30.27 in Calm   4 mph 85% 0.00 in 0 W/m2
06:09 52.1 °F 47.7 °F 30.27 in Calm     85% 0.00 in 0 W/m2
06:14 52 °F 47.6 °F 30.27 in Calm     85% 0.00 in 0 W/m2
06:19 51.9 °F 47.5 °F 30.27 in Calm     85% 0.00 in 0 W/m2
06:24 51.8 °F 47.4 °F 30.28 in Calm     85% 0.00 in 0 W/m2
06:29 51.7 °F 47.4 °F 30.28 in NW 0.2 mph 3 mph 85% 0.00 in 0 W/m2
06:34 51.6 °F 47.3 °F 30.28 in Calm   3 mph 85% 0.00 in 0 W/m2
06:39 51.6 °F 47.2 °F 30.29 in Calm     85% 0.00 in 0 W/m2
06:44 51.5 °F 47.2 °F 30.29 in Calm     85% 0.00 in 0 W/m2
06:49 51.4 °F 47.1 °F 30.29 in Calm     85% 0.00 in 0 W/m2
06:54 51.4 °F 47.2 °F 30.29 in Calm     85.4% 0.00 in 5 W/m2
06:59 51.3 °F 47.1 °F 30.29 in NW 0.3 mph 5 mph 85.3% 0.00 in 7 W/m2
07:04 51.3 °F 47.2 °F 30.29 in NNW 0.5 mph 6 mph 85.7% 0.00 in 9 W/m2
07:09 51.3 °F 47.3 °F 30.30 in Calm   5 mph 86% 0.00 in 11 W/m2
07:14 51.3 °F 47.3 °F 30.30 in Calm   5 mph 86% 0.00 in 12 W/m2
07:19 51.4 °F 47.3 °F 30.30 in Calm   5 mph 86% 0.00 in 14 W/m2
07:24 51.4 °F 47.3 °F 30.30 in Calm   5 mph 86% 0.00 in 14 W/m2
07:29 51.4 °F 47.4 °F 30.30 in NW 0.1 mph 5 mph 86% 0.00 in 16 W/m2
07:34 51.4 °F 47.4 °F 30.30 in Calm   5 mph 86% 0.00 in 18 W/m2
07:39 51.5 °F 47.5 °F 30.30 in Calm     86% 0.00 in 18 W/m2
07:44 51.6 °F 47.6 °F 30.30 in NW 0.1 mph 2 mph 86% 0.00 in 19 W/m2
07:49 51.8 °F 47.8 °F 30.30 in Calm   2 mph 86% 0.00 in 19 W/m2
07:54 52 °F 47.9 °F 30.31 in Calm   2 mph 86% 0.00 in 25 W/m2
07:59 52.2 °F 48.1 °F 30.31 in Calm   2 mph 85.9% 0.00 in 23 W/m2
08:00 52.3 °F 47.9 °F 30.31 in Calm   2 mph 85% 0.00 in 23 W/m2
08:09 52.7 °F 48.3 °F 30.31 in NW 0.2 mph 3 mph 85% 0.00 in 25 W/m2
08:14 52.9 °F 48.5 °F 30.31 in NNW 0.2 mph 4 mph 85% 0.00 in 26 W/m2
08:19 53.2 °F 48.7 °F 30.31 in NNW 0.1 mph 4 mph 84.8% 0.00 in 26 W/m2
08:24 53.5 °F 48.8 °F 30.31 in NE 0.7 mph 6 mph 84% 0.00 in 28 W/m2
08:29 53.8 °F 48.9 °F 30.31 in ENE 0.5 mph 6 mph 83.4% 0.00 in 32 W/m2
08:34 54.2 °F 48.8 °F 30.32 in East 0.3 mph 6 mph 82.1% 0.00 in 35 W/m2
08:39 54.5 °F 49.2 °F 30.32 in East 0.2 mph 5 mph 82% 0.00 in 46 W/m2
08:44 54.8 °F 49.2 °F 30.32 in ENE 0.4 mph 6 mph 81.3% 0.00 in 63 W/m2
08:49 55.2 °F 49.4 °F 30.32 in NE 0.3 mph 6 mph 81% 0.00 in 54 W/m2
08:54 55.4 °F 49.4 °F 30.32 in NNE 0.1 mph 6 mph 80.2% 0.00 in 65 W/m2
08:59 55.7 °F 49.6 °F 30.32 in NE 0.2 mph 6 mph 79.9% 0.00 in 84 W/m2
09:04 56 °F 49.6 °F 30.32 in East 0.1 mph 6 mph 79% 0.00 in 432 W/m2
09:09 56.5 °F 49.8 °F 30.32 in NNE 1.1 mph 7 mph 78.2% 0.00 in 450 W/m2
09:14 57.4 °F 50.1 °F 30.32 in ENE 0.4 mph 7 mph 76.4% 0.00 in 461 W/m2
09:19 58.5 °F 50.4 °F 30.32 in North 0.7 mph 7 mph 74.7% 0.00 in 478 W/m2
09:24 59.5 °F 51.1 °F 30.32 in North 1.1 mph 7 mph 73.7% 0.00 in 497 W/m2
09:29 60.5 °F 51.2 °F 30.32 in NW 1.8 mph 11 mph 71.3% 0.00 in 506 W/m2
09:34 61.3 °F 51 °F 30.32 in NW 1.7 mph 11 mph 68.8% 0.00 in 520 W/m2
09:39 61.8 °F 51.5 °F 30.32 in NW 0.8 mph 7 mph 68.7% 0.00 in 541 W/m2
09:44 62.3 °F 51.5 °F 30.32 in NNW 0.4 mph 7 mph 67.5% 0.00 in 555 W/m2
09:49 62.8 °F 51.5 °F 30.32 in NNE 1.1 mph 8 mph 66.7% 0.00 in 577 W/m2
09:54 63.2 °F 51.6 °F 30.32 in East 0.5 mph 8 mph 65.9% 0.00 in 603 W/m2
09:59 63.8 °F 52 °F 30.33 in North 0.7 mph 8 mph 65.3% 0.00 in 592 W/m2
10:04 64.6 °F 52.4 °F 30.33 in NW 0.6 mph 8 mph 64.7% 0.00 in 671 W/m2
10:09 65.2 °F 52.7 °F 30.33 in WNW 0.8 mph 7 mph 64% 0.00 in 675 W/m2
10:14 65.8 °F 53 °F 30.33 in NW 0.5 mph 7 mph 63.3% 0.00 in 703 W/m2
10:19 66.1 °F 52.4 °F 30.33 in North 0.8 mph 7 mph 61.3% 0.00 in 731 W/m2
10:24 66.3 °F 51.8 °F 30.33 in NNE 1 mph 7 mph 59.5% 0.00 in 684 W/m2
10:29 66.1 °F 51.3 °F 30.33 in NNW 1.2 mph 7 mph 59% 0.00 in 696 W/m2
10:34 65.9 °F 51.2 °F 30.34 in NNW 0.9 mph 7 mph 59% 0.00 in 775 W/m2
10:39 65.9 °F 51.5 °F 30.34 in ENE 0.7 mph 6 mph 59.8% 0.00 in 788 W/m2
10:44 66 °F 51.2 °F 30.34 in East 0.5 mph 6 mph 58.8% 0.00 in 838 W/m2
10:49 65.8 °F 51 °F 30.34 in NNE 1.2 mph 9 mph 58.8% 0.00 in 838 W/m2
10:54 65.4 °F 50.5 °F 30.33 in ENE 1 mph 9 mph 58.5% 0.00 in 881 W/m2
10:59 65.3 °F 50.9 °F 30.33 in North 0.8 mph 9 mph 59.5% 0.00 in 925 W/m2
11:04 65.2 °F 50.6 °F 30.33 in North 0.6 mph 9 mph 59.2% 0.00 in 320 W/m2
11:09 64.7 °F 50.7 °F 30.33 in NW 1.3 mph 11 mph 60.5% 0.00 in 367 W/m2
11:14 64.3 °F 50.7 °F 30.33 in North 3.9 mph 14 mph 61.3% 0.00 in 334 W/m2
11:19 64.1 °F 50.3 °F 30.33 in NNW 1.1 mph 14 mph 60.7% 0.00 in 316 W/m2
11:24 63.7 °F 50.1 °F 30.33 in NW 2.1 mph 14 mph 61.2% 0.00 in 281 W/m2
11:29 63.2 °F 49.9 °F 30.33 in NW 0.4 mph 14 mph 61.8% 0.00 in 278 W/m2
11:34 62.8 °F 49.7 °F 30.33 in NW 2.8 mph 14 mph 62.2% 0.00 in 281 W/m2
11:39 62.3 °F 49.4 °F 30.33 in NNW 0.8 mph 12 mph 62.7% 0.00 in 279 W/m2
11:44 61.9 °F 48.9 °F 30.32 in ENE 0.4 mph 12 mph 62.4% 0.00 in 251 W/m2
11:49 61.6 °F 49 °F 30.32 in North 0.7 mph 12 mph 63.3% 0.00 in 199 W/m2
11:54 61.7 °F 49.1 °F 30.32 in NE 2.3 mph 12 mph 63.3% 0.00 in 229 W/m2
11:59 62.1 °F 49.8 °F 30.32 in NE 1.4 mph 12 mph 63.9% 0.00 in 292 W/m2
12:09 62.9 °F 49.6 °F 30.32 in NNW 2.3 mph 14 mph 61.8% 0.00 in 353 W/m2
12:14 63 °F 49 °F 30.32 in ENE 1.8 mph 14 mph 60.3% 0.00 in 353 W/m2
12:19 63.1 °F 49 °F 30.32 in East 1.4 mph 14 mph 60.1% 0.00 in 452 W/m2
12:24 63.1 °F 49.6 °F 30.31 in NNE 2.1 mph 14 mph 61.2% 0.00 in 703 W/m2
12:29 63.4 °F 49.9 °F 30.32 in NW 1.8 mph 14 mph 61.3% 0.00 in 299 W/m2
12:34 63.5 °F 49.7 °F 30.31 in NNW 1.1 mph 14 mph 60.8% 0.00 in 737 W/m2
12:39 63.3 °F 49.2 °F 30.31 in ENE 1.1 mph 6 mph 60.1% 0.00 in 737 W/m2
12:44 63.2 °F 50.2 °F 30.31 in North 1.2 mph 9 mph 62.6% 0.00 in 294 W/m2
12:49 63.2 °F 49.1 °F 30.31 in NW 3.3 mph 15 mph 60.1% 0.00 in 278 W/m2
12:54 62.9 °F 49.2 °F 30.31 in NW 1 mph 15 mph 60.8% 0.00 in 216 W/m2
12:59 63 °F 49.7 °F 30.31 in WNW 0.3 mph 15 mph 61.7% 0.00 in 348 W/m2
13:04 63.5 °F 50 °F 30.31 in NW 2.5 mph 15 mph 61.6% 0.00 in 348 W/m2
13:09 63.8 °F 50.3 °F 30.31 in North 0.8 mph 11 mph 61.6% 0.00 in 267 W/m2
13:14 64.1 °F 50.5 °F 30.31 in North 1.8 mph 11 mph 61.2% 0.00 in 272 W/m2
13:19 64.1 °F 49.7 °F 30.31 in NNW 1.3 mph 11 mph 59.3% 0.00 in 255 W/m2
13:24 63.9 °F 49.3 °F 30.31 in East 1.7 mph 11 mph 59% 0.00 in 313 W/m2
13:29 63.6 °F 49.6 °F 30.31 in ESE 1.8 mph 11 mph 60.4% 0.00 in 234 W/m2
13:34 63.6 °F 49.9 °F 30.31 in NW 2.2 mph 11 mph 61% 0.00 in 438 W/m2
13:39 64 °F 50.3 °F 30.31 in NNE 1 mph 11 mph 61.2% 0.00 in 612 W/m2
13:44 64.3 °F 50.1 °F 30.31 in North 0.7 mph 11 mph 60% 0.00 in 214 W/m2
13:49 64.3 °F 49.8 °F 30.31 in NW 2.1 mph 11 mph 59.5% 0.00 in 251 W/m2
13:54 64.1 °F 49.8 °F 30.31 in NW 1.2 mph 11 mph 59.7% 0.00 in 178 W/m2
13:59 63.9 °F 49.6 °F 30.31 in ENE 2 mph 11 mph 59.7% 0.00 in 193 W/m2
14:04 63.9 °F 49.6 °F 30.31 in NW 2.9 mph 11 mph 59.6% 0.00 in 181 W/m2
14:09 63.9 °F 49.5 °F 30.31 in NNE 0.9 mph 10 mph 59.5% 0.00 in 292 W/m2
14:14 64 °F 49.9 °F 30.30 in NE 0.5 mph 10 mph 60.1% 0.00 in 292 W/m2
14:19 64.1 °F 49.8 °F 30.30 in NNW 1.1 mph 10 mph 59.6% 0.00 in 234 W/m2
14:24 64.2 °F 49.6 °F 30.30 in NNW 1 mph 10 mph 59.2% 0.00 in 227 W/m2
14:29 64.1 °F 49.2 °F 30.30 in ENE 0.8 mph 10 mph 58.5% 0.00 in 132 W/m2
14:34 63.8 °F 49.3 °F 30.29 in NNE 0.1 mph 10 mph 59.2% 0.00 in 160 W/m2
14:39 63.8 °F 50.3 °F 30.29 in NW 1.1 mph 5 mph 61.3% 0.00 in 566 W/m2
14:44 64.1 °F 50.1 °F 30.29 in East 1.8 mph 12 mph 60.4% 0.00 in 334 W/m2
14:49 64.3 °F 49.8 °F 30.29 in NW 0.6 mph 12 mph 59.3% 0.00 in 195 W/m2
14:54 64.4 °F 50.1 °F 30.29 in NNW 0.3 mph 12 mph 59.8% 0.00 in 163 W/m2
14:59 64.6 °F 50.7 °F 30.29 in NNW 1.3 mph 12 mph 60.6% 0.00 in 163 W/m2
15:04 64.8 °F 50.1 °F 30.29 in NW 3 mph 12 mph 59% 0.00 in 69 W/m2
15:09 64.7 °F 49.9 °F 30.29 in NW 2.4 mph 10 mph 58.7% 0.00 in 79 W/m2
15:14 64.7 °F 49.4 °F 30.29 in NNW 0.6 mph 10 mph 57.7% 0.00 in 76 W/m2
15:19 64.6 °F 49.8 °F 30.29 in West 0.9 mph 10 mph 58.7% 0.00 in 190 W/m2
15:24 64.8 °F 50.4 °F 30.29 in NNW 0.9 mph 10 mph 59.6% 0.00 in 213 W/m2
15:29 64.9 °F 49.7 °F 30.29 in ENE 0.7 mph 10 mph 57.8% 0.00 in 413 W/m2
15:34 64.9 °F 49.5 °F 30.29 in ENE 1 mph 10 mph 57.5% 0.00 in 343 W/m2
15:39 64.8 °F 50.1 °F 30.29 in NNW 0.8 mph 6 mph 58.7% 0.00 in 121 W/m2
15:44 64.8 °F 50.5 °F 30.30 in WNW 1.2 mph 9 mph 59.6% 0.00 in 188 W/m2
15:49 64.9 °F 50.4 °F 30.30 in WNW 0.4 mph 9 mph 59.5% 0.00 in 90 W/m2
15:54 64.8 °F 50 °F 30.30 in NW 0.7 mph 9 mph 58.7% 0.00 in 90 W/m2
15:59 64.8 °F 49.6 °F 30.30 in NW 0.1 mph 9 mph 57.9% 0.00 in 113 W/m2
16:00 64.9 °F 49.8 °F 30.30 in NW 1 mph 9 mph 58% 0.00 in 121 W/m2
16:09 65 °F 50.2 °F 30.29 in NNW 0.1 mph 1 mph 58.8% 0.00 in 134 W/m2
17:00 64.4 °F 50.2 °F 30.29 in Calm   4 mph 60% 0.00 in 91 W/m2
19:00 61.1 °F 49.7 °F 30.31 in Calm   4 mph 66% 0.00 in 1 W/m2
19:30 59.4 °F 48.1 °F 30.31 in NW 1 mph 6 mph 66% 0.00 in 0 W/m2
20:04 57.9 °F 47.4 °F 30.31 in WNW 0.2 mph 2 mph 68% 0.00 in 0 W/m2
20:09 57.8 °F 47.2 °F 30.32 in NW 0.8 mph 6 mph 67.6% 0.00 in 0 W/m2
20:14 57.6 °F 46.8 °F 30.32 in NNW 0.4 mph 6 mph 67.3% 0.00 in 0 W/m2
20:19 57.4 °F 46.9 °F 30.32 in NNW 0.3 mph 6 mph 67.9% 0.00 in 0 W/m2
20:24 57.2 °F 46.6 °F 30.32 in NNW 0.9 mph 6 mph 67.7% 0.00 in 0 W/m2
20:29 57 °F 46.6 °F 30.32 in NW 0.3 mph 6 mph 68% 0.00 in 0 W/m2
20:34 56.8 °F 46.5 °F 30.32 in NW 0.1 mph 6 mph 68.3% 0.00 in 0 W/m2
20:39 56.6 °F 46.3 °F 30.32 in NW 0.1 mph 2 mph 68.1% 0.00 in 0 W/m2
20:44 56.5 °F 46.4 °F 30.32 in NNW 0.2 mph 3 mph 68.9% 0.00 in 0 W/m2
20:49 56.4 °F 46.3 °F 30.32 in NNW 0.3 mph 3 mph 69% 0.00 in 0 W/m2
20:54 56.2 °F 46.3 °F 30.32 in NNW 0.4 mph 3 mph 69.3% 0.00 in 0 W/m2
20:57 56.1 °F 46.4 °F 30.32 in NNW 0.3 mph 3 mph 70% 0.00 in 0 W/m2
Hartford County Weather
Compliments of Weather Underground - 4 mb